Wind Cave Natl Park, South Dakota
Current Conditions -  °F | °C
As of 5:53 PM on Wednesday 22 Oct 2014 (Local Time) from KCUT Reporting Station
Clear Clear  
Wind Chill: 46°   Ceiling: Unl
Heat Index: 48°   Visibility: 10mi
Dew Point: 24°   Wind: 5mph
Humidity: 39%   Direction: 250°WSW
Pressure: 30.06"   Gusts: NA
Location:  43.59°N, 103.42°W
Report Text: KCUT 222353Z AUTO 25004KT 10SM CLR 09/M04 A3006 RMK AO2 SLP158 T00891044 10133 20089 53006
Loading
Personal Weather Stations






























Interactive Weather Map
Tropical Storm Tracking
New forecast layout! Learn more

10-Day Weather Forecast

Advertisements
Track Severe Weather on mobile